Time;durP1;ratioP1;P1;durP2;ratioP2;P2;SDS_P1;SDS_P2;PMS_P1;PMS_P2;Temp;Humidity;BMP_temperature;BMP_pressure;BME280_temperature;BME280_humidity;BME280_pressure;Samples;Min_cycle;Max_cycle;Signal;HPM_P1;HPM_P2
2023/12/05 10:53:36;;;;;;;44.65;26.27;;;;;;;;;;5080596;27;20384;-73
2023/12/05 10:56:15;;;;;;;44.83;25.67;;;;;;;;;;5082542;28;20067;-72
2023/12/05 10:58:47;;;;;;;43.72;25.52;;;;;;;;;;5079599;28;20492;-73
2023/12/05 11:01:14;;;;;;;40.00;24.30;;;;;;;;;;5082828;28;20072;-73
2023/12/05 11:03:41;;;;;;;44.63;27.15;;;;;;;;;;5095710;28;20048;-73
2023/12/05 11:06:08;;;;;;;46.63;28.55;;;;;;;;;;5091992;28;20052;-73
2023/12/05 11:08:35;;;;;;;41.40;26.27;;;;;;;;;;5075247;28;20037;-73
2023/12/05 11:11:07;;;;;;;41.88;25.75;;;;;;;;;;5091690;28;20048;-73
2023/12/05 11:13:34;;;;;;;41.95;27.02;;;;;;;;;;5082915;28;20435;-73
2023/12/05 11:16:09;;;;;;;43.70;27.63;;;;;;;;;;5079358;28;20040;-73
2023/12/05 11:18:42;;;;;;;41.17;26.35;;;;;;;;;;5077362;28;20095;-70
2023/12/05 11:21:26;;;;;;;41.53;27.35;;;;;;;;;;5081513;28;20048;-70
2023/12/05 11:24:10;;;;;;;51.97;28.83;;;;;;;;;;5082203;28;20125;-70
2023/12/05 11:26:49;;;;;;;40.97;26.40;;;;;;;;;;5087802;28;20045;-70
2023/12/05 11:29:26;;;;;;;42.47;26.02;;;;;;;;;;5062498;28;20048;-70
2023/12/05 11:32:04;;;;;;;38.75;24.88;;;;;;;;;;5083499;28;20487;-70
2023/12/05 11:34:33;;;;;;;40.63;26.30;;;;;;;;;;5077059;28;20044;-70
2023/12/05 11:37:02;;;;;;;40.72;25.60;;;;;;;;;;5074109;28;20041;-70
2023/12/05 11:39:30;;;;;;;40.60;26.67;;;;;;;;;;5071717;28;20056;-70
2023/12/05 11:42:14;;;;;;;38.08;25.45;;;;;;;;;;5078202;28;20048;-71
2023/12/05 11:44:41;;;;;;;38.95;25.45;;;;;;;;;;5083852;28;20037;-70
2023/12/05 11:47:14;;;;;;;39.47;25.13;;;;;;;;;;5084784;28;20517;-70
2023/12/05 11:49:46;;;;;;;36.00;24.33;;;;;;;;;;5086875;28;20040;-70
2023/12/05 11:52:12;;;;;;;37.28;24.73;;;;;;;;;;5076669;28;20080;-70
2023/12/05 11:54:42;;;;;;;37.75;24.38;;;;;;;;;;5076086;28;20499;-70
2023/12/05 11:57:18;;;;;;;41.03;26.92;;;;;;;;;;5078304;28;20048;-70
2023/12/05 11:59:48;;;;;;;36.90;24.48;;;;;;;;;;5079045;28;20052;-70
2023/12/05 12:02:17;;;;;;;37.80;25.38;;;;;;;;;;5080905;28;20040;-70
2023/12/05 12:04:45;;;;;;;39.15;26.75;;;;;;;;;;5061503;28;20040;-70
2023/12/05 12:07:11;;;;;;;39.25;26.08;;;;;;;;;;5064464;28;20055;-70
2023/12/05 12:09:43;;;;;;;38.45;25.60;;;;;;;;;;5055632;28;20133;-70
2023/12/05 12:12:09;;;;;;;38.85;24.70;;;;;;;;;;5058309;28;20470;-70
2023/12/05 12:14:39;;;;;;;36.10;24.92;;;;;;;;;;5056939;28;20056;-72
2023/12/05 12:17:05;;;;;;;38.83;25.02;;;;;;;;;;5058312;28;20040;-72
2023/12/05 12:19:31;;;;;;;38.33;26.08;;;;;;;;;;5053132;28;20516;-72
2023/12/05 12:21:57;;;;;;;37.30;25.27;;;;;;;;;;5092162;28;20048;-73
2023/12/05 12:24:24;;;;;;;38.08;25.25;;;;;;;;;;5061992;28;20041;-72
2023/12/05 12:26:54;;;;;;;39.17;25.33;;;;;;;;;;5052063;28;20049;-72
2023/12/05 12:29:21;;;;;;;38.92;25.15;;;;;;;;;;5064698;28;20040;-72
2023/12/05 12:31:48;;;;;;;38.65;24.85;;;;;;;;;;5065099;28;20135;-73
2023/12/05 12:34:22;;;;;;;42.83;26.70;;;;;;;;;;5058743;28;20498;-73
2023/12/05 12:36:48;;;;;;;39.85;26.08;;;;;;;;;;5060997;28;20036;-73
2023/12/05 12:39:16;;;;;;;38.92;25.67;;;;;;;;;;5055330;28;20126;-72
2023/12/05 12:41:42;;;;;;;36.45;24.95;;;;;;;;;;5052112;28;20048;-73
2023/12/05 12:44:12;;;;;;;41.60;26.05;;;;;;;;;;5067538;28;20041;-73
2023/12/05 12:56:32;;;;;;;37.22;24.92;;;;;;;;;;4985506;28;20276;-73
2023/12/05 12:59:24;;;;;;;;;;;;;;;;;;;;;
2023/12/05 13:01:56;;;;;;;38.35;25.58;;;;;;;;;;5025251;28;20053;-73
2023/12/05 13:05:17;;;;;;;38.58;24.98;;;;;;;;;;5021000;28;20128;-72
2023/12/05 13:07:43;;;;;;;43.58;27.38;;;;;;;;;;5023115;28;20045;-70
2023/12/05 13:10:10;;;;;;;40.80;25.63;;;;;;;;;;5022128;28;20076;-70
2023/12/05 13:12:36;;;;;;;40.28;26.00;;;;;;;;;;5027577;28;20049;-70
2023/12/05 13:15:05;;;;;;;36.67;23.88;;;;;;;;;;5029116;28;20117;-70
2023/12/05 13:17:32;;;;;;;37.08;24.55;;;;;;;;;;5026776;28;20493;-71
2023/12/05 13:20:03;;;;;;;41.15;26.33;;;;;;;;;;5027755;28;20099;-70
2023/12/05 13:22:30;;;;;;;40.10;24.92;;;;;;;;;;5021347;28;20108;-71
2023/12/05 13:25:03;;;;;;;37.35;24.55;;;;;;;;;;5026794;28;20037;-71
2023/12/05 13:27:30;;;;;;;38.53;25.70;;;;;;;;;;5003467;28;20476;-71
2023/12/05 13:29:56;;;;;;;38.92;26.58;;;;;;;;;;5005876;28;20099;-71
2023/12/05 13:32:22;;;;;;;37.47;24.83;;;;;;;;;;5025351;28;20060;-71
2023/12/05 13:34:48;;;;;;;39.67;26.67;;;;;;;;;;5020393;28;20539;-73
2023/12/05 13:37:20;;;;;;;39.70;26.58;;;;;;;;;;5027938;28;20049;-73
2023/12/05 13:39:46;;;;;;;38.80;24.98;;;;;;;;;;5017200;28;20037;-73
2023/12/05 13:42:14;;;;;;;38.30;25.95;;;;;;;;;;5010246;28;20053;-73
2023/12/05 13:44:42;;;;;;;41.70;25.92;;;;;;;;;;5025551;28;20037;-73
2023/12/05 13:47:11;;;;;;;39.55;26.70;;;;;;;;;;5027550;28;20053;-73
2023/12/05 13:49:37;;;;;;;40.95;27.45;;;;;;;;;;5027899;28;20115;-73
2023/12/05 13:52:04;;;;;;;36.63;25.98;;;;;;;;;;5004786;28;20136;-73
2023/12/05 13:54:30;;;;;;;43.92;26.95;;;;;;;;;;5020399;28;20053;-73
2023/12/05 13:56:59;;;;;;;41.97;27.65;;;;;;;;;;5020940;28;20037;-73
2023/12/05 13:59:25;;;;;;;37.58;26.80;;;;;;;;;;5021758;28;20129;-73
2023/12/05 14:01:51;;;;;;;40.97;25.83;;;;;;;;;;5036279;28;20107;-73
2023/12/05 14:04:20;;;;;;;44.50;28.40;;;;;;;;;;5021987;28;20045;-73
2023/12/05 14:06:53;;;;;;;40.28;26.20;;;;;;;;;;5019692;28;20646;-73
2023/12/05 14:09:19;;;;;;;41.10;27.30;;;;;;;;;;5023809;28;20160;-73
2023/12/05 14:11:46;;;;;;;41.33;26.30;;;;;;;;;;5020322;28;20085;-73
2023/12/05 14:14:18;;;;;;;38.17;25.63;;;;;;;;;;5022394;28;20042;-73
2023/12/05 14:16:47;;;;;;;41.75;27.45;;;;;;;;;;5006239;28;20472;-73
2023/12/05 14:19:13;;;;;;;42.60;27.30;;;;;;;;;;5021424;28;20042;-70
2023/12/05 14:21:39;;;;;;;42.08;26.27;;;;;;;;;;5011017;28;20046;-71
2023/12/05 14:24:05;;;;;;;41.88;27.30;;;;;;;;;;5030083;28;20050;-71
2023/12/05 14:26:34;;;;;;;39.13;27.02;;;;;;;;;;5035272;28;20037;-71
2023/12/05 14:29:00;;;;;;;41.22;26.80;;;;;;;;;;5024883;28;20046;-70
2023/12/05 14:31:26;;;;;;;39.22;26.38;;;;;;;;;;5026361;28;20052;-70
2023/12/05 14:33:56;;;;;;;41.90;25.90;;;;;;;;;;5025897;28;20477;-70
2023/12/05 14:36:22;;;;;;;42.38;25.88;;;;;;;;;;5009754;28;20180;-71
2023/12/05 14:38:48;;;;;;;43.45;26.17;;;;;;;;;;5027756;28;20055;-71
2023/12/05 14:41:17;;;;;;;42.28;28.35;;;;;;;;;;5023120;28;20121;-71
2023/12/05 14:43:43;;;;;;;38.92;25.65;;;;;;;;;;5020608;28;20124;-70
2023/12/05 14:46:09;;;;;;;40.33;25.92;;;;;;;;;;5029730;28;20037;-71
2023/12/05 14:48:35;;;;;;;40.78;26.58;;;;;;;;;;5026988;28;20061;-73
2023/12/05 14:51:01;;;;;;;39.83;27.50;;;;;;;;;;5027243;28;20050;-72
2023/12/05 14:53:27;;;;;;;42.47;26.08;;;;;;;;;;5022177;28;20141;-71
2023/12/05 14:55:54;;;;;;;40.95;26.60;;;;;;;;;;5011254;28;20121;-71
2023/12/05 14:58:23;;;;;;;40.72;25.65;;;;;;;;;;5014596;28;20089;-71
2023/12/05 15:00:51;;;;;;;37.55;24.63;;;;;;;;;;5030005;28;20042;-73
2023/12/05 15:03:18;;;;;;;37.88;25.92;;;;;;;;;;5030319;28;20056;-73
2023/12/05 15:05:44;;;;;;;43.45;27.00;;;;;;;;;;5029042;28;20053;-73
2023/12/05 15:08:10;;;;;;;41.80;26.00;;;;;;;;;;5022821;28;20066;-73
2023/12/05 15:10:39;;;;;;;36.80;24.42;;;;;;;;;;5019732;28;20065;-73
2023/12/05 15:13:05;;;;;;;37.75;25.33;;;;;;;;;;5023495;28;20053;-73
2023/12/05 15:15:31;;;;;;;39.15;25.27;;;;;;;;;;5027543;28;20054;-73
2023/12/05 15:17:57;;;;;;;37.95;24.67;;;;;;;;;;5030050;28;20045;-73
2023/12/05 15:20:26;;;;;;;39.20;26.52;;;;;;;;;;5012072;28;20132;-73
2023/12/05 15:22:52;;;;;;;35.25;24.20;;;;;;;;;;5030829;28;20041;-73
2023/12/05 15:25:18;;;;;;;35.63;24.95;;;;;;;;;;5011456;28;20049;-73
2023/12/05 15:27:44;;;;;;;39.00;24.95;;;;;;;;;;5011113;28;20490;-73
2023/12/05 15:30:12;;;;;;;36.72;25.02;;;;;;;;;;5010142;28;20141;-73
2023/12/05 15:32:39;;;;;;;36.88;24.08;;;;;;;;;;5027247;28;20050;-73
2023/12/05 15:35:05;;;;;;;38.08;24.92;;;;;;;;;;5028449;28;20060;-73
2023/12/05 15:37:34;;;;;;;38.40;25.00;;;;;;;;;;5032006;28;20050;-73
2023/12/05 15:40:00;;;;;;;39.42;25.10;;;;;;;;;;5037200;28;20593;-73
2023/12/05 15:42:26;;;;;;;38.20;24.27;;;;;;;;;;5025110;28;20140;-73
2023/12/05 15:44:53;;;;;;;37.70;25.38;;;;;;;;;;5028683;28;20069;-73
2023/12/05 15:47:19;;;;;;;38.92;25.30;;;;;;;;;;5025169;28;20053;-73
2023/12/05 15:49:45;;;;;;;40.95;26.05;;;;;;;;;;5028012;28;20049;-73
2023/12/05 15:52:11;;;;;;;39.58;26.02;;;;;;;;;;5031040;28;20037;-73
2023/12/05 15:54:40;;;;;;;39.70;26.00;;;;;;;;;;5022066;28;20061;-73
2023/12/05 15:57:06;;;;;;;39.97;26.70;;;;;;;;;;5022358;28;20038;-73
2023/12/05 15:59:32;;;;;;;39.17;25.05;;;;;;;;;;5018224;28;20049;-73
2023/12/05 16:02:01;;;;;;;42.92;26.92;;;;;;;;;;5032487;28;20489;-73
2023/12/05 16:04:27;;;;;;;41.58;26.60;;;;;;;;;;5030802;28;20106;-73
2023/12/05 16:06:53;;;;;;;40.05;26.23;;;;;;;;;;5026621;28;20049;-73
2023/12/05 16:09:20;;;;;;;40.72;26.80;;;;;;;;;;5024377;28;20056;-73
2023/12/05 16:11:47;;;;;;;40.13;26.17;;;;;;;;;;5027462;28;20631;-73
2023/12/05 16:14:13;;;;;;;41.25;26.77;;;;;;;;;;5024479;28;20390;-73
2023/12/05 16:16:39;;;;;;;43.67;26.88;;;;;;;;;;5020950;28;20045;-73
2023/12/05 16:19:21;;;;;;;41.67;27.20;;;;;;;;;;5021644;28;20053;-73
2023/12/05 16:21:50;;;;;;;40.97;27.27;;;;;;;;;;5005299;28;20052;-73
2023/12/05 16:24:20;;;;;;;40.28;26.30;;;;;;;;;;5025250;28;20041;-74
2023/12/05 16:26:46;;;;;;;44.03;26.55;;;;;;;;;;5029122;28;20029;-82
2023/12/05 16:29:18;;;;;;;44.38;27.52;;;;;;;;;;5022345;28;20042;-73
2023/12/05 16:31:44;;;;;;;43.85;27.70;;;;;;;;;;5025349;28;20329;-72
2023/12/05 16:34:10;;;;;;;47.08;29.50;;;;;;;;;;5028247;28;20430;-73
2023/12/05 16:36:39;;;;;;;43.17;27.33;;;;;;;;;;5027125;28;20042;-73
2023/12/05 16:39:14;;;;;;;42.38;28.27;;;;;;;;;;5027010;28;20059;-72
2023/12/05 16:41:40;;;;;;;45.80;27.58;;;;;;;;;;5028644;28;20050;-73
2023/12/05 16:44:06;;;;;;;43.67;27.85;;;;;;;;;;5029260;28;20132;-71
2023/12/05 16:46:32;;;;;;;42.83;27.48;;;;;;;;;;5022503;28;20041;-71
2023/12/05 16:48:58;;;;;;;46.80;30.00;;;;;;;;;;5022566;28;20080;-71
2023/12/05 16:51:27;;;;;;;43.20;28.70;;;;;;;;;;5026627;28;20049;-71
2023/12/05 16:53:53;;;;;;;46.40;29.48;;;;;;;;;;5029032;28;20444;-71
2023/12/05 16:56:19;;;;;;;44.97;29.85;;;;;;;;;;5029430;28;20052;-71
2023/12/05 16:58:50;;;;;;;44.88;30.00;;;;;;;;;;5026392;28;20127;-71
2023/12/05 17:01:16;;;;;;;45.35;27.83;;;;;;;;;;5006946;28;20053;-72
2023/12/05 17:03:45;;;;;;;46.70;29.80;;;;;;;;;;5020882;28;20041;-72
2023/12/05 17:06:13;;;;;;;47.22;29.77;;;;;;;;;;5027113;28;20436;-73
2023/12/05 17:08:39;;;;;;;49.70;29.55;;;;;;;;;;5023847;28;20048;-72
2023/12/05 17:11:06;;;;;;;46.92;29.33;;;;;;;;;;5029377;28;20507;-72
2023/12/05 17:13:32;;;;;;;47.50;29.83;;;;;;;;;;5041538;28;20061;-71
2023/12/05 17:15:58;;;;;;;46.33;29.13;;;;;;;;;;5026304;28;20053;-71
2023/12/05 17:18:24;;;;;;;47.30;30.08;;;;;;;;;;5028538;28;20053;-71
2023/12/05 17:20:50;;;;;;;47.95;29.35;;;;;;;;;;5027944;28;20041;-72
2023/12/05 17:23:16;;;;;;;46.05;29.55;;;;;;;;;;5022429;28;20053;-72
2023/12/05 17:25:42;;;;;;;43.08;29.20;;;;;;;;;;5026952;28;20053;-72
2023/12/05 17:28:08;;;;;;;45.95;30.60;;;;;;;;;;5025327;28;20049;-72
2023/12/05 17:30:37;;;;;;;46.65;28.98;;;;;;;;;;5022093;28;20128;-72
2023/12/05 17:33:09;;;;;;;49.10;30.15;;;;;;;;;;5027859;28;20049;-72
2023/12/05 17:35:35;;;;;;;48.00;29.80;;;;;;;;;;5023431;28;20076;-72
2023/12/05 17:38:01;;;;;;;48.70;32.03;;;;;;;;;;5028342;28;20314;-73
2023/12/05 17:40:27;;;;;;;47.47;30.45;;;;;;;;;;5018813;28;20049;-73
2023/12/05 17:42:53;;;;;;;48.30;30.77;;;;;;;;;;5031176;28;20120;-72
2023/12/05 17:45:19;;;;;;;46.78;30.60;;;;;;;;;;5030471;28;20408;-72
2023/12/05 17:47:48;;;;;;;45.85;30.33;;;;;;;;;;5024494;28;20650;-73
2023/12/05 17:50:17;;;;;;;46.55;29.88;;;;;;;;;;5019121;28;20177;-77
2023/12/05 17:52:43;;;;;;;46.88;29.55;;;;;;;;;;5023421;28;20049;-75
2023/12/05 17:55:10;;;;;;;49.30;31.65;;;;;;;;;;5027042;28;20496;-74
2023/12/05 17:57:41;;;;;;;46.17;30.73;;;;;;;;;;5027256;28;20133;-74
2023/12/05 18:00:08;;;;;;;51.78;30.40;;;;;;;;;;5019152;28;20396;-73
2023/12/05 18:02:34;;;;;;;49.60;31.88;;;;;;;;;;5020768;28;20045;-74
2023/12/05 18:07:55;;;;;;;51.53;32.10;;;;;;;;;;5123211;22;20084;-75
2023/12/05 18:13:45;;;;;;;47.70;30.60;;;;;;;;;;5046590;28;20063;-77
2023/12/05 18:16:20;;;;;;;48.13;30.73;;;;;;;;;;5029090;28;20549;-79
2023/12/05 18:29:45;;;;;;;;;;;;;;;;;;;;;
2023/12/05 18:36:22;;;;;;;50.92;30.45;;;;;;;;;;5065910;28;20499;-75
2023/12/05 18:39:25;;;;;;;49.17;31.45;;;;;;;;;;5067925;28;20056;-75
2023/12/05 18:52:04;;;;;;;52.15;31.98;;;;;;;;;;5005710;28;20549;-73
2023/12/05 20:05:12;;;;;;;47.22;30.13;;;;;;;;;;4931650;29;20460;-74
2023/12/05 20:07:38;;;;;;;54.63;33.22;;;;;;;;;;4893784;29;20084;-73
2023/12/05 20:10:05;;;;;;;51.33;31.80;;;;;;;;;;4883573;29;20056;-73
2023/12/05 20:12:31;;;;;;;55.72;34.03;;;;;;;;;;4912673;29;20048;-77
2023/12/05 20:15:00;;;;;;;56.90;35.45;;;;;;;;;;4896862;29;20043;-78
2023/12/05 20:17:27;;;;;;;53.42;33.38;;;;;;;;;;4912099;29;20040;-74
2023/12/05 20:19:54;;;;;;;55.63;33.22;;;;;;;;;;4908900;29;20048;-74
2023/12/05 20:22:24;;;;;;;52.67;32.53;;;;;;;;;;4912265;29;20071;-76
2023/12/05 20:24:50;;;;;;;51.28;33.33;;;;;;;;;;4910061;29;20059;-76
2023/12/05 20:27:17;;;;;;;55.45;34.20;;;;;;;;;;4893818;29;20561;-76
2023/12/05 20:29:45;;;;;;;55.05;34.00;;;;;;;;;;4909293;29;20040;-77
2023/12/05 20:32:11;;;;;;;55.00;33.80;;;;;;;;;;4893856;29;20858;-75
2023/12/05 20:34:37;;;;;;;55.88;32.72;;;;;;;;;;4886750;29;20416;-79
2023/12/05 20:37:03;;;;;;;49.17;30.75;;;;;;;;;;4894726;29;20048;-82
2023/12/05 20:39:38;;;;;;;53.10;31.30;;;;;;;;;;4910290;29;20053;-81
2023/12/05 20:42:11;;;;;;;49.85;30.83;;;;;;;;;;4907966;29;20036;-82
2023/12/05 20:45:12;;;;;;;50.53;31.55;;;;;;;;;;4894093;29;20043;-81
2023/12/05 20:50:17;;;;;;;52.05;30.15;;;;;;;;;;5019329;23;19946;-78
2023/12/05 20:52:43;;;;;;;50.50;31.05;;;;;;;;;;4924417;29;20445;-78
2023/12/05 20:55:09;;;;;;;50.00;31.23;;;;;;;;;;4925401;29;20396;-80
2023/12/05 20:57:35;;;;;;;50.80;30.77;;;;;;;;;;4909138;29;20143;-79
2023/12/05 21:00:02;;;;;;;50.30;29.83;;;;;;;;;;4922885;29;20047;-80
2023/12/05 21:02:28;;;;;;;48.13;31.65;;;;;;;;;;4927956;29;20532;-76
2023/12/05 21:04:54;;;;;;;46.88;30.45;;;;;;;;;;4910736;29;20078;-79
2023/12/05 21:07:20;;;;;;;47.10;30.35;;;;;;;;;;4889805;29;20090;-76
2023/12/05 21:09:46;;;;;;;48.15;30.52;;;;;;;;;;4910067;29;20075;-76
2023/12/05 21:12:12;;;;;;;53.50;30.10;;;;;;;;;;4927415;29;20048;-76
2023/12/05 21:14:40;;;;;;;45.15;28.73;;;;;;;;;;4927741;29;20035;-76
2023/12/05 21:17:06;;;;;;;45.42;28.65;;;;;;;;;;4911486;29;20529;-78
2023/12/05 21:19:38;;;;;;;44.00;28.70;;;;;;;;;;4909435;29;20052;-77
2023/12/05 21:22:09;;;;;;;42.47;27.67;;;;;;;;;;4930640;29;20444;-75
2023/12/05 21:44:29;;;;;;;45.53;28.42;;;;;;;;;;4903514;29;20051;-77
2023/12/05 21:47:15;;;;;;;51.15;31.20;;;;;;;;;;5397273;23;20023;-74
2023/12/05 21:52:23;;;;;;;46.58;30.00;;;;;;;;;;4904474;29;20063;-77
2023/12/05 21:54:54;;;;;;;48.28;30.08;;;;;;;;;;4894792;29;20213;-76
2023/12/05 21:57:20;;;;;;;44.95;29.55;;;;;;;;;;4909258;29;20101;-76
2023/12/05 21:59:47;;;;;;;42.90;28.65;;;;;;;;;;4891652;29;20047;-74
2023/12/05 22:02:13;;;;;;;40.75;28.95;;;;;;;;;;4887523;29;20071;-76
2023/12/05 22:04:39;;;;;;;43.00;29.13;;;;;;;;;;4889895;29;20170;-76
2023/12/05 22:07:05;;;;;;;43.88;28.45;;;;;;;;;;4893527;29;20147;-76
2023/12/05 22:09:31;;;;;;;45.72;29.90;;;;;;;;;;4911530;29;20127;-75
2023/12/05 22:27:33;;;;;;;43.50;27.60;;;;;;;;;;4933261;23;20183;-78
2023/12/05 22:29:59;;;;;;;47.13;27.65;;;;;;;;;;4895880;29;20059;-78
2023/12/05 22:45:32;;;;;;;39.55;26.50;;;;;;;;;;4943627;23;20055;-78
2023/12/05 22:54:23;;;;;;;36.17;23.90;;;;;;;;;;4921810;29;20052;-80
2023/12/05 22:56:58;;;;;;;37.38;24.85;;;;;;;;;;4948664;28;20051;-74
2023/12/05 23:19:04;;;;;;;29.27;21.35;;;;;;;;;;4945112;28;20069;-75
2023/12/05 23:53:33;;;;;;;30.88;20.90;;;;;;;;;;4855704;29;20558;-75
